Time;durP1;ratioP1;P1;durP2;ratioP2;P2;SDS_P1;SDS_P2;PMS_P1;PMS_P2;Temp;Humidity;BMP_temperature;BMP_pressure;BME280_temperature;BME280_humidity;BME280_pressure;Samples;Min_cycle;Max_cycle;Signal;HPM_P1;HPM_P2
2021/01/16 00:00:40;726300.00;2.42;1252.88;0.00;0.00;0.62;;;;;7.80;1.00;;;;;;2284862;61;1128;-86
2021/01/16 00:03:09;612952.00;2.04;1056.59;0.00;0.00;0.62;;;;;7.70;1.00;;;;;;2284832;61;1411;-86
2021/01/16 00:05:36;669505.00;2.23;1154.40;0.00;0.00;0.62;;;;;7.30;1.00;;;;;;2284826;61;899;-86
2021/01/16 00:08:05;728640.00;2.43;1256.94;0.00;0.00;0.62;;;;;7.60;1.00;;;;;;2284873;61;1132;-86
2021/01/16 00:10:34;739203.00;2.46;1275.29;26168.00;0.09;45.95;;;;;8.00;1.00;;;;;;2284847;61;1112;-87
2021/01/16 00:13:01;587946.00;1.96;1013.41;0.00;0.00;0.62;;;;;8.20;1.00;;;;;;2284757;61;1412;-85
2021/01/16 00:15:28;670854.00;2.24;1156.73;0.00;0.00;0.62;;;;;8.00;1.00;;;;;;2277421;61;1009;-85
2021/01/16 00:17:59;654036.00;2.18;1127.62;0.00;0.00;0.62;;;;;7.90;1.00;;;;;;2284837;61;1069;-85
2021/01/16 00:20:26;572655.00;1.91;987.03;0.00;0.00;0.62;;;;;7.80;1.00;;;;;;2277619;61;954;-85
2021/01/16 00:22:52;607946.00;2.03;1047.94;0.00;0.00;0.62;;;;;8.10;1.00;;;;;;2284780;61;1419;-85
2021/01/16 00:25:20;665932.00;2.22;1148.21;0.00;0.00;0.62;;;;;7.90;1.00;;;;;;2284759;61;1148;-85
2021/01/16 00:27:47;520695.00;1.74;897.46;0.00;0.00;0.62;;;;;8.10;1.00;;;;;;2284805;61;1017;-86
2021/01/16 00:30:17;599386.00;2.00;1033.16;0.00;0.00;0.62;;;;;8.50;1.00;;;;;;2277589;61;1048;-86
2021/01/16 00:32:43;610510.00;2.04;1052.37;0.00;0.00;0.62;;;;;8.40;1.00;;;;;;2284721;61;1993;-87
2021/01/16 00:35:12;810000.00;2.70;1398.57;0.00;0.00;0.62;;;;;8.20;1.00;;;;;;2284706;61;1000;-87
2021/01/16 00:37:39;548713.00;1.83;945.74;0.00;0.00;0.62;;;;;8.00;1.00;;;;;;2284751;61;1140;-86
2021/01/16 00:40:09;497676.00;1.66;857.82;0.00;0.00;0.62;;;;;8.00;1.00;;;;;;2280965;61;1001;-86
2021/01/16 00:42:39;481911.00;1.61;830.69;0.00;0.00;0.62;;;;;7.80;1.00;;;;;;2284662;61;1310;-85
2021/01/16 00:45:08;561289.00;1.87;967.42;0.00;0.00;0.62;;;;;7.80;1.00;;;;;;2284718;61;1074;-86
2021/01/16 00:47:35;758105.00;2.53;1308.15;95038.00;0.32;165.01;;;;;7.70;1.00;;;;;;2284739;61;1106;-86
2021/01/16 00:50:02;598488.00;1.99;1031.61;88198.00;0.29;153.20;;;;;7.90;1.00;;;;;;2284698;61;1071;-87
2021/01/16 00:52:28;808655.00;2.70;1396.22;86832.00;0.29;150.84;;;;;7.90;1.00;;;;;;2284572;61;1914;-85
2021/01/16 00:54:55;864317.00;2.88;1493.53;0.00;0.00;0.62;;;;;7.50;1.00;;;;;;2284680;61;1149;-86
2021/01/16 00:57:21;656040.00;2.19;1131.09;0.00;0.00;0.62;;;;;7.40;1.00;;;;;;2284518;61;1109;-85
2021/01/16 00:59:48;545277.00;1.82;939.82;0.00;0.00;0.62;;;;;7.40;1.00;;;;;;2284691;61;1137;-86
2021/01/16 01:02:15;768350.00;2.56;1325.98;0.00;0.00;0.62;;;;;7.10;1.00;;;;;;2284633;61;1309;-87
2021/01/16 01:04:41;589526.00;1.97;1016.14;0.00;0.00;0.62;;;;;7.10;1.00;;;;;;2284709;61;1172;-88
2021/01/16 01:07:10;644642.00;2.15;1111.37;0.00;0.00;0.62;;;;;6.20;1.00;;;;;;2284622;61;1140;-85
2021/01/16 01:09:36;655323.00;2.18;1129.85;0.00;0.00;0.62;;;;;5.90;1.00;;;;;;2284630;61;1104;-86
2021/01/16 01:12:04;729741.00;2.43;1258.85;0.00;0.00;0.62;;;;;6.10;1.00;;;;;;2284576;61;1992;-86
2021/01/16 01:14:30;649333.00;2.16;1119.48;0.00;0.00;0.62;;;;;6.50;1.00;;;;;;2284668;61;1013;-86
2021/01/16 01:16:57;768691.00;2.56;1326.57;0.00;0.00;0.62;;;;;6.80;1.00;;;;;;2284583;61;1740;-85
2021/01/16 01:19:24;609876.00;2.03;1051.28;0.00;0.00;0.62;;;;;6.70;1.00;;;;;;2284624;61;1161;-87
2021/01/16 01:21:50;726505.00;2.42;1253.23;0.00;0.00;0.62;;;;;6.60;1.00;;;;;;2284578;61;1355;-86
2021/01/16 01:24:17;692233.00;2.31;1193.77;0.00;0.00;0.62;;;;;6.90;1.00;;;;;;2284590;61;1057;-86
2021/01/16 01:26:44;690881.00;2.30;1191.43;0.00;0.00;0.62;;;;;7.20;1.00;;;;;;2284437;61;1144;-86
2021/01/16 01:29:10;544693.00;1.82;938.81;0.00;0.00;0.62;;;;;7.20;1.00;;;;;;2284481;61;1159;-86
2021/01/16 01:31:37;698914.00;2.33;1205.36;0.00;0.00;0.62;;;;;7.20;1.00;;;;;;2284518;61;1996;-86
2021/01/16 01:34:04;604025.00;2.01;1041.17;0.00;0.00;0.62;;;;;7.10;1.00;;;;;;2284558;61;1090;-86
2021/01/16 01:36:31;613997.00;2.05;1058.39;0.00;0.00;0.62;;;;;6.90;1.00;;;;;;2284414;61;1798;-87
2021/01/16 01:38:58;568203.00;1.89;979.35;0.00;0.00;0.62;;;;;7.40;1.00;;;;;;2284512;61;1061;-85
2021/01/16 01:41:24;453574.00;1.51;781.93;0.00;0.00;0.62;;;;;7.80;1.00;;;;;;2284587;61;1120;-85
2021/01/16 01:43:51;559031.00;1.86;963.53;0.00;0.00;0.62;;;;;7.80;1.00;;;;;;2284475;61;1295;-86
2021/01/16 01:46:18;678228.00;2.26;1169.50;36753.00;0.12;64.27;;;;;7.50;1.00;;;;;;2284515;61;1141;-85
2021/01/16 01:48:45;645007.00;2.15;1112.00;0.00;0.00;0.62;;;;;7.60;1.00;;;;;;2284533;61;1092;-86
2021/01/16 01:51:12;618153.00;2.06;1065.57;0.00;0.00;0.62;;;;;7.70;1.00;;;;;;2284441;61;1922;-86
2021/01/16 01:53:43;553506.00;1.85;954.00;0.00;0.00;0.62;;;;;7.70;1.00;;;;;;2284536;61;1426;-86
2021/01/16 01:56:13;571426.00;1.90;984.91;0.00;0.00;0.62;;;;;7.60;1.00;;;;;;2284515;61;1089;-86
2021/01/16 01:58:42;710859.00;2.37;1226.07;0.00;0.00;0.62;;;;;7.90;1.00;;;;;;2284515;61;1136;-86
2021/01/16 02:01:12;629940.00;2.10;1085.95;0.00;0.00;0.62;;;;;8.10;1.00;;;;;;2284478;61;1045;-86
2021/01/16 02:03:42;529663.00;1.77;912.91;0.00;0.00;0.62;;;;;7.80;1.00;;;;;;2284490;61;1420;-86
2021/01/16 02:06:09;592530.00;1.98;1021.32;0.00;0.00;0.62;;;;;7.60;1.00;;;;;;2284448;61;1031;-86
2021/01/16 02:08:35;527899.00;1.76;909.87;0.00;0.00;0.62;;;;;7.90;1.00;;;;;;2284460;61;1124;-85
2021/01/16 02:11:03;617905.00;2.06;1065.15;0.00;0.00;0.62;;;;;7.60;1.00;;;;;;2284454;61;1999;-85
2021/01/16 02:13:29;683689.00;2.28;1178.96;12063.00;0.04;21.52;;;;;7.30;1.00;;;;;;2284433;61;1388;-86
2021/01/16 02:16:04;464686.00;1.55;801.05;0.00;0.00;0.62;;;;;8.00;1.00;;;;;;2284472;61;977;-87
2021/01/16 02:18:36;591753.00;1.97;1019.98;0.00;0.00;0.62;;;;;8.30;1.00;;;;;;2284461;61;1057;-85
2021/01/16 02:21:05;542430.00;1.81;934.91;0.00;0.00;0.62;;;;;8.80;1.00;;;;;;2284451;61;1060;-86
2021/01/16 02:23:33;565857.00;1.89;975.30;0.00;0.00;0.62;;;;;9.10;1.00;;;;;;2284437;61;1416;-87
2021/01/16 02:26:57;369345.00;1.23;637.11;0.00;0.00;0.62;;;;;8.90;1.00;;;;;;2284481;61;1104;-86
2021/01/16 02:29:25;627057.00;2.09;1080.96;103822.00;0.35;180.17;;;;;8.80;1.00;;;;;;2280652;61;942;-86
2021/01/16 02:31:57;597968.00;1.99;1030.71;0.00;0.00;0.62;;;;;8.10;1.00;;;;;;2284366;61;1994;-86
2021/01/16 02:34:29;632907.00;2.11;1091.07;81061.00;0.27;140.87;;;;;7.70;1.00;;;;;;2284395;61;917;-87
2021/01/16 02:37:20;813969.00;2.71;1405.50;89356.00;0.30;155.20;;;;;8.00;1.00;;;;;;2280478;61;1081;-85
2021/01/16 02:39:57;142750896.00;475.84;117899904.00;81446.00;0.27;141.53;;;;;7.60;1.00;;;;;;2281244;61;949;-86
2021/01/16 02:42:37;810440.00;2.70;1399.34;77848.00;0.26;135.32;;;;;7.30;1.00;;;;;;2277949;61;1451;-86
2021/01/16 02:45:11;821670.00;2.74;1418.94;96749.00;0.32;167.96;;;;;7.60;1.00;;;;;;2285091;61;1067;-86
2021/01/16 02:47:56;813007.00;2.71;1403.82;91392.00;0.30;158.71;;;;;7.50;1.00;;;;;;2285105;61;1105;-86
2021/01/16 02:50:24;771543.00;2.57;1331.54;96693.00;0.32;167.86;;;;;7.10;1.00;;;;;;2285071;61;1106;-85
2021/01/16 02:52:52;645603.00;2.15;1113.03;0.00;0.00;0.62;;;;;7.10;1.00;;;;;;2277788;61;2009;-85
2021/01/16 02:55:21;535007.00;1.78;922.12;0.00;0.00;0.62;;;;;7.00;1.00;;;;;;2285026;61;1144;-87
2021/01/16 02:57:48;598443.00;1.99;1031.53;0.00;0.00;0.62;;;;;6.90;1.00;;;;;;2285073;61;1232;-85
2021/01/16 03:00:19;658976.00;2.20;1136.17;0.00;0.00;0.62;;;;;6.90;1.00;;;;;;2280420;61;1017;-85
2021/01/16 03:02:46;768929.00;2.56;1326.99;0.00;0.00;0.62;;;;;7.10;1.00;;;;;;2280459;61;1391;-85
2021/01/16 03:05:12;496749.00;1.66;856.23;0.00;0.00;0.62;;;;;7.00;1.00;;;;;;2280517;61;1112;-85
2021/01/16 03:07:42;609064.00;2.03;1049.87;0.00;0.00;0.62;;;;;7.00;1.00;;;;;;2280466;61;1026;-86
2021/01/16 03:10:11;563772.00;1.88;971.71;0.00;0.00;0.62;;;;;7.10;1.00;;;;;;2280524;61;1062;-86
2021/01/16 03:12:38;657297.00;2.19;1133.26;0.00;0.00;0.62;;;;;7.10;1.00;;;;;;2280369;61;1988;-86
2021/01/16 03:15:07;631566.00;2.11;1088.76;0.00;0.00;0.62;;;;;7.30;1.00;;;;;;2280432;61;1098;-86
2021/01/16 03:17:45;514577.00;1.72;886.92;0.00;0.00;0.62;;;;;7.10;1.00;;;;;;2271397;61;976;-85
2021/01/16 03:20:14;680516.00;2.27;1173.47;59716.00;0.20;103.99;;;;;7.20;1.00;;;;;;2281150;61;1008;-87
2021/01/16 03:22:40;557682.00;1.86;961.20;0.00;0.00;0.62;;;;;7.60;1.00;;;;;;2284987;61;1453;-86
2021/01/16 03:25:07;572456.00;1.91;986.68;0.00;0.00;0.62;;;;;7.70;1.00;;;;;;2284967;61;1085;-86
2021/01/16 03:27:34;516485.00;1.72;890.21;0.00;0.00;0.62;;;;;7.50;1.00;;;;;;2284955;61;1053;-85
2021/01/16 03:30:01;557954.00;1.86;961.67;0.00;0.00;0.62;;;;;7.80;1.00;;;;;;2284940;61;1050;-86
2021/01/16 03:32:27;508026.00;1.69;875.64;0.00;0.00;0.62;;;;;8.10;1.00;;;;;;2284826;61;1915;-85
2021/01/16 03:34:54;647903.00;2.16;1117.01;0.00;0.00;0.62;;;;;8.10;1.00;;;;;;2284938;61;1078;-85
2021/01/16 03:37:21;447862.00;1.49;772.10;0.00;0.00;0.62;;;;;7.50;1.00;;;;;;2284931;61;1030;-85
2021/01/16 03:39:48;527042.00;1.76;908.40;0.00;0.00;0.62;;;;;7.40;1.00;;;;;;2284902;61;1101;-85
2021/01/16 03:42:14;491388.00;1.64;847.00;0.00;0.00;0.62;;;;;7.50;1.00;;;;;;2281046;61;1362;-85
2021/01/16 03:44:41;612381.00;2.04;1055.60;0.00;0.00;0.62;;;;;7.60;1.00;;;;;;2284887;61;1074;-87
2021/01/16 03:47:07;613128.00;2.04;1056.89;0.00;0.00;0.62;;;;;6.90;1.00;;;;;;2284858;61;1131;-85
2021/01/16 03:49:34;647556.00;2.16;1116.41;0.00;0.00;0.62;;;;;6.90;1.00;;;;;;2284874;61;1108;-86
2021/01/16 03:52:02;591685.00;1.97;1019.86;0.00;0.00;0.62;;;;;6.80;1.00;;;;;;2284724;61;1930;-87
2021/01/16 03:54:29;724836.00;2.42;1250.33;0.00;0.00;0.62;;;;;7.20;1.00;;;;;;2284883;61;1118;-86
2021/01/16 03:56:55;658084.00;2.19;1134.62;0.00;0.00;0.62;;;;;7.00;1.00;;;;;;2284911;61;1039;-86
2021/01/16 03:59:22;817062.00;2.72;1410.90;49234.00;0.16;85.86;;;;;6.60;1.00;;;;;;2284872;61;1081;-86
2021/01/16 04:01:49;657768.00;2.19;1134.08;0.00;0.00;0.62;;;;;6.20;1.00;;;;;;2284838;61;1394;-85
2021/01/16 04:04:16;617728.00;2.06;1064.84;0.00;0.00;0.62;;;;;6.40;1.00;;;;;;2284844;61;1124;-87
2021/01/16 04:06:43;759118.00;2.53;1309.92;0.00;0.00;0.62;;;;;6.90;1.00;;;;;;2284850;61;1037;-86
2021/01/16 04:09:10;680630.00;2.27;1173.66;0.00;0.00;0.62;;;;;7.50;1.00;;;;;;2284857;61;1065;-85
2021/01/16 04:11:37;684747.00;2.28;1180.80;0.00;0.00;0.62;;;;;7.50;1.00;;;;;;2284837;61;1919;-85
2021/01/16 04:14:04;550050.00;1.83;948.05;0.00;0.00;0.62;;;;;7.60;1.00;;;;;;2284808;61;1135;-86
2021/01/16 04:16:30;433443.00;1.44;747.31;0.00;0.00;0.62;;;;;8.30;1.00;;;;;;2284873;61;1128;-86
2021/01/16 04:18:57;591360.00;1.97;1019.30;0.00;0.00;0.62;;;;;8.60;1.00;;;;;;2284791;61;1147;-87
2021/01/16 04:21:24;484161.00;1.61;834.56;0.00;0.00;0.62;;;;;9.00;1.00;;;;;;2284775;61;1147;-88
2021/01/16 04:23:50;538251.00;1.79;927.71;0.00;0.00;0.62;;;;;9.10;1.00;;;;;;2284752;61;1313;-86
2021/01/16 04:26:18;637817.00;2.13;1099.56;0.00;0.00;0.62;;;;;9.20;1.00;;;;;;2280987;61;1013;-86
2021/01/16 04:28:44;537587.00;1.79;926.56;0.00;0.00;0.62;;;;;8.60;1.00;;;;;;2284840;61;1069;-87
2021/01/16 04:31:11;579177.00;1.93;998.28;0.00;0.00;0.62;;;;;8.10;1.00;;;;;;2284781;61;1917;-86
2021/01/16 04:33:37;468530.00;1.56;807.66;0.00;0.00;0.62;;;;;8.20;1.00;;;;;;2284809;61;1313;-87
2021/01/16 04:36:05;540829.00;1.80;932.15;0.00;0.00;0.62;;;;;8.10;1.00;;;;;;2284768;61;1113;-86
2021/01/16 04:38:31;596195.00;1.99;1027.65;0.00;0.00;0.62;;;;;8.30;1.00;;;;;;2284753;61;1081;-85
2021/01/16 04:40:58;600849.00;2.00;1035.69;0.00;0.00;0.62;;;;;7.80;1.00;;;;;;2284733;61;1095;-86
2021/01/16 04:43:25;610722.00;2.04;1052.74;0.00;0.00;0.62;;;;;7.20;1.00;;;;;;2284746;61;1362;-87
2021/01/16 04:45:59;487012.00;1.62;839.47;0.00;0.00;0.62;;;;;7.70;1.00;;;;;;2284769;61;1115;-86
2021/01/16 04:48:26;730963.00;2.44;1260.97;89984.00;0.30;156.28;;;;;7.80;1.00;;;;;;2284769;61;988;-86
2021/01/16 04:50:59;692040.00;2.31;1193.44;101156.00;0.34;175.57;;;;;7.80;1.00;;;;;;2277523;61;995;-86
2021/01/16 04:53:37;627447.00;2.09;1081.64;82164.00;0.27;142.78;;;;;7.60;1.00;;;;;;2284660;61;1920;-88
2021/01/16 04:56:05;753203.00;2.51;1299.63;101793.00;0.34;176.67;;;;;7.00;1.00;;;;;;2284749;61;1084;-86
2021/01/16 04:58:35;803856.00;2.68;1387.85;84505.00;0.28;146.82;;;;;6.70;1.00;;;;;;2284688;61;1124;-86
2021/01/16 05:01:05;826608.00;2.76;1427.57;99884.00;0.33;173.37;;;;;6.70;1.00;;;;;;2284605;61;1130;-86
2021/01/16 05:03:36;1494457.00;4.98;2632.69;214510.00;0.72;370.90;;;;;6.70;1.00;;;;;;2284673;61;1387;-85
2021/01/16 05:06:08;1181437.00;3.94;2056.69;98128.00;0.33;170.34;;;;;6.80;1.00;;;;;;2284571;61;1135;-86
2021/01/16 05:08:37;1189423.00;3.96;2071.11;88246.00;0.29;153.28;;;;;7.10;1.00;;;;;;2279934;60;971;-85
2021/01/16 05:11:07;701475.00;2.34;1209.80;0.00;0.00;0.62;;;;;7.40;1.00;;;;;;2280011;60;1130;-87
2021/01/16 05:13:45;845215.00;2.82;1460.10;0.00;0.00;0.62;;;;;7.50;1.00;;;;;;2279942;60;1424;-85
2021/01/16 05:16:14;810450.00;2.70;1399.35;0.00;0.00;0.62;;;;;7.70;1.00;;;;;;2279934;60;1177;-85
2021/01/16 05:18:43;995826.00;3.32;1725.08;83678.00;0.28;145.39;;;;;8.00;1.00;;;;;;2280065;60;1125;-86
2021/01/16 05:21:11;786551.00;2.62;1357.68;87634.00;0.29;152.22;;;;;7.80;1.00;;;;;;2279926;60;1029;-85
2021/01/16 05:23:42;1158569.00;3.86;2015.49;119394.00;0.40;207.04;;;;;7.70;1.00;;;;;;2279987;60;1313;-86
2021/01/16 05:26:09;729796.00;2.43;1258.95;89729.00;0.30;155.84;;;;;7.50;1.00;;;;;;2281494;60;1132;-86
2021/01/16 05:28:37;1026313.00;3.42;1779.13;83487.00;0.28;145.06;;;;;7.10;1.00;;;;;;2284602;61;1043;-86
2021/01/16 05:31:06;725979.00;2.42;1252.32;105286.00;0.35;182.70;;;;;7.00;1.00;;;;;;2280798;61;1008;-86
2021/01/16 05:33:35;662928.00;2.21;1143.01;100926.00;0.34;175.17;;;;;6.70;1.00;;;;;;2280739;61;2054;-85
2021/01/16 05:36:04;995654.00;3.32;1724.78;127258.00;0.42;220.60;;;;;6.50;1.00;;;;;;2277391;61;968;-85
2021/01/16 05:38:34;842613.00;2.81;1455.54;95397.00;0.32;165.63;;;;;6.70;1.00;;;;;;2280787;61;944;-86
2021/01/16 05:41:04;725773.00;2.42;1251.96;83767.00;0.28;145.54;;;;;7.60;1.00;;;;;;2284613;61;984;-86
2021/01/16 05:43:32;771451.00;2.57;1331.38;86833.00;0.29;150.84;;;;;8.20;1.00;;;;;;2277400;61;1315;-86
2021/01/16 05:46:00;118406272.00;394.69;67245408.00;93732.00;0.31;162.75;;;;;8.30;1.00;;;;;;2284581;61;953;-86
2021/01/16 05:48:30;684121.00;2.28;1179.71;85761.00;0.29;148.99;;;;;8.60;1.00;;;;;;2284584;61;1054;-86
2021/01/16 05:50:57;812445.00;2.71;1402.84;92461.00;0.31;160.56;;;;;9.10;1.00;;;;;;2284523;61;1016;-87
2021/01/16 05:53:25;553385.00;1.84;953.79;86485.00;0.29;150.24;;;;;8.80;1.00;;;;;;2284508;61;1928;-88
2021/01/16 05:55:53;761666.00;2.54;1314.35;90980.00;0.30;158.00;;;;;8.40;1.00;;;;;;2280697;61;995;-85
2021/01/16 05:58:21;814417.00;2.71;1406.28;91955.00;0.31;159.68;;;;;7.90;1.00;;;;;;2284512;61;1175;-86
2021/01/16 06:00:50;574129.00;1.91;989.57;93248.00;0.31;161.92;;;;;7.70;1.00;;;;;;2284542;61;1132;-86
2021/01/16 06:03:18;805283.00;2.68;1390.34;76250.00;0.25;132.56;;;;;7.70;1.00;;;;;;2284501;61;1273;-86
2021/01/16 06:05:51;656224.00;2.19;1131.41;89415.00;0.30;155.30;;;;;7.80;1.00;;;;;;2284528;61;1132;-86
2021/01/16 06:08:18;783638.00;2.61;1352.60;91634.00;0.31;159.13;;;;;7.70;1.00;;;;;;2284489;61;1109;-86
2021/01/16 06:10:51;747993.00;2.49;1290.57;89001.00;0.30;154.58;;;;;7.60;1.00;;;;;;2284457;61;1089;-86
2021/01/16 06:13:19;1074619.00;3.58;1865.09;187167.00;0.62;323.83;;;;;7.40;1.00;;;;;;2280921;61;2030;-86
2021/01/16 06:15:48;774321.00;2.58;1336.38;95025.00;0.32;164.98;;;;;7.20;1.00;;;;;;2285164;61;1112;-86
2021/01/16 06:18:21;636959.00;2.12;1098.08;84708.00;0.28;147.17;;;;;7.60;1.00;;;;;;2285120;61;1042;-86
2021/01/16 06:20:51;537031.00;1.79;925.61;0.00;0.00;0.62;;;;;7.40;1.00;;;;;;2285187;61;1092;-87
2021/01/16 06:23:20;435853.00;1.45;751.45;0.00;0.00;0.62;;;;;7.40;1.00;;;;;;2285146;61;1384;-85
2021/01/16 06:25:53;530756.00;1.77;914.79;0.00;0.00;0.62;;;;;7.50;1.00;;;;;;2285228;61;1177;-87
2021/01/16 06:28:22;758834.00;2.53;1309.42;94281.00;0.31;163.70;;;;;7.40;1.00;;;;;;2285157;61;1147;-86
2021/01/16 06:30:54;883203.00;2.94;1526.64;122712.00;0.41;212.76;;;;;7.40;1.00;;;;;;2285149;61;1141;-87
2021/01/16 06:33:27;453374.00;1.51;781.59;0.00;0.00;0.62;;;;;6.90;1.00;;;;;;2285149;61;1998;-86
2021/01/16 06:36:00;671412.00;2.24;1157.70;0.00;0.00;0.62;;;;;6.60;1.00;;;;;;2285113;61;1163;-85
2021/01/16 06:38:29;123883320.00;412.94;77024952.00;123200320.00;410.67;75756792.00;;;;;6.40;1.00;;;;;;2285114;61;1021;-85
2021/01/16 06:40:56;744318.00;2.48;1284.18;0.00;0.00;0.62;;;;;6.60;1.00;;;;;;2285116;61;1008;-86
2021/01/16 06:43:24;547042.00;1.82;942.86;0.00;0.00;0.62;;;;;6.50;1.00;;;;;;2285057;61;1411;-86
2021/01/16 06:45:51;542303.00;1.81;934.69;0.00;0.00;0.62;;;;;6.70;1.00;;;;;;2284976;61;1806;-86
2021/01/16 06:48:17;565349.00;1.88;974.42;0.00;0.00;0.62;;;;;7.20;1.00;;;;;;2285049;61;1100;-87
2021/01/16 06:50:48;692852.00;2.31;1194.85;67567.00;0.23;117.56;;;;;7.50;1.00;;;;;;2284995;61;1548;-86
2021/01/16 06:53:26;587328.00;1.96;1012.34;0.00;0.00;0.62;;;;;7.40;1.00;;;;;;2284916;61;2001;-86
2021/01/16 06:56:06;508771.00;1.70;876.93;0.00;0.00;0.62;;;;;8.10;1.00;;;;;;2285047;61;1124;-86
2021/01/16 06:58:43;897934.00;2.99;1552.49;134785.00;0.45;233.58;;;;;8.20;1.00;;;;;;2284784;61;1115;-86
2021/01/16 07:01:11;834610.00;2.78;1441.55;132935.00;0.44;230.39;;;;;8.00;1.00;;;;;;2285028;61;948;-86
2021/01/16 07:03:45;809607.00;2.70;1397.88;92216.00;0.31;160.13;;;;;7.00;1.00;;;;;;2284927;61;1390;-85
2021/01/16 07:06:13;787719.00;2.63;1359.71;84490.00;0.28;146.79;;;;;7.60;1.00;;;;;;2284966;61;1164;-85
2021/01/16 07:08:43;576377.00;1.92;993.45;95102.00;0.32;165.12;;;;;7.60;1.00;;;;;;2285031;61;1033;-85
2021/01/16 07:11:11;861187.00;2.87;1488.05;99210.00;0.33;172.21;;;;;7.20;1.00;;;;;;2285003;61;1148;-86
2021/01/16 07:13:42;931473.00;3.10;1611.47;91410.00;0.30;158.74;;;;;7.10;1.00;;;;;;2284951;61;2009;-85
2021/01/16 07:16:10;826225.00;2.75;1426.90;90921.00;0.30;157.90;;;;;6.60;1.00;;;;;;2281162;61;956;-86
2021/01/16 07:18:37;838448.00;2.79;1448.26;90755.00;0.30;157.61;;;;;6.70;1.00;;;;;;2284914;61;1294;-86
2021/01/16 07:21:05;783118.00;2.61;1351.70;102739.00;0.34;178.30;;;;;7.20;1.00;;;;;;2284980;61;1136;-87
2021/01/16 07:23:34;747055.00;2.49;1288.94;85756.00;0.29;148.98;;;;;7.50;1.00;;;;;;2284743;61;1498;-88
2021/01/16 07:26:03;766909.00;2.56;1323.47;82481.00;0.27;143.32;;;;;7.60;1.00;;;;;;2284913;61;1000;-86
2021/01/16 07:28:29;711233.00;2.37;1226.72;87146.00;0.29;151.38;;;;;7.80;1.00;;;;;;2284936;61;1108;-85
2021/01/16 07:30:57;637913.00;2.13;1099.73;87427.00;0.29;151.86;;;;;7.70;1.00;;;;;;2284917;61;1116;-86
2021/01/16 07:33:29;612144.00;2.04;1055.19;86860.00;0.29;150.89;;;;;7.80;1.00;;;;;;2284856;61;1999;-86
2021/01/16 07:35:59;807299.00;2.69;1393.86;89917.00;0.30;156.16;;;;;7.50;1.00;;;;;;2284914;61;1021;-86
2021/01/16 07:38:28;751906.00;2.51;1297.37;72230.00;0.24;125.61;;;;;7.30;1.00;;;;;;2284844;61;1568;-85
2021/01/16 07:40:57;930692.00;3.10;1610.09;93550.00;0.31;162.44;;;;;7.20;1.00;;;;;;2284828;61;1163;-85
2021/01/16 07:43:50;833937.00;2.78;1440.38;94508.00;0.32;164.09;;;;;7.00;1.00;;;;;;2284842;61;1395;-84
2021/01/16 07:46:21;728503.00;2.43;1256.70;0.00;0.00;0.62;;;;;6.80;1.00;;;;;;2284782;61;1064;-84
2021/01/16 07:48:50;876549.00;2.92;1514.97;0.00;0.00;0.62;;;;;6.50;1.00;;;;;;2284909;61;1140;-84
2021/01/16 07:51:18;984428.00;3.28;1704.91;0.00;0.00;0.62;;;;;6.30;1.00;;;;;;2281008;61;1000;-85
2021/01/16 07:53:45;850586.00;2.84;1469.49;0.00;0.00;0.62;;;;;6.80;1.00;;;;;;2284790;61;1981;-84
2021/01/16 07:56:21;829691.00;2.77;1432.95;0.00;0.00;0.62;;;;;7.00;1.00;;;;;;2284765;61;1724;-85
2021/01/16 07:59:03;126942992.00;423.14;82879952.00;0.00;0.00;0.62;;;;;6.90;1.00;;;;;;2284794;61;1112;-85
2021/01/16 08:01:42;613529.00;2.05;1057.59;0.00;0.00;0.62;;;;;6.60;1.00;;;;;;2284829;61;1128;-85
2021/01/16 08:04:24;644970.00;2.15;1111.93;0.00;0.00;0.62;;;;;6.20;1.00;;;;;;2284814;61;1149;-86
2021/01/16 08:07:03;938058.00;3.13;1623.06;0.00;0.00;0.62;;;;;6.10;1.00;;;;;;2281047;61;953;-85
2021/01/16 08:09:55;838572.00;2.80;1448.48;0.00;0.00;0.62;;;;;6.10;1.00;;;;;;2284817;61;1109;-85
2021/01/16 08:12:24;717815.00;2.39;1238.15;0.00;0.00;0.62;;;;;5.90;1.00;;;;;;2284731;61;2010;-84
2021/01/16 08:14:54;694977.00;2.32;1198.53;0.00;0.00;0.62;;;;;5.80;1.00;;;;;;2284019;61;1053;-87
2021/01/16 08:17:26;121151856.00;403.84;72037056.00;0.00;0.00;0.62;;;;;5.20;1.00;;;;;;2283206;61;1181;-87
2021/01/16 08:20:09;618784.00;2.06;1066.66;0.00;0.00;0.62;;;;;5.50;1.00;;;;;;2283441;61;1056;-88
2021/01/16 08:22:40;609256.00;2.03;1050.20;0.00;0.00;0.62;;;;;5.60;1.00;;;;;;2280847;61;1477;-86
2021/01/16 08:25:09;733582.00;2.45;1265.52;0.00;0.00;0.62;;;;;5.60;1.00;;;;;;2284656;61;1071;-88
2021/01/16 08:27:37;581828.00;1.94;1002.85;0.00;0.00;0.62;;;;;5.70;1.00;;;;;;2284657;61;932;-86
2021/01/16 08:30:10;988629.00;3.30;1712.34;13302.00;0.04;23.67;;;;;5.80;1.00;;;;;;2284619;61;1168;-86
2021/01/16 08:33:00;1038648.00;3.46;1801.04;17222.00;0.06;30.46;;;;;5.60;1.00;;;;;;2284389;61;2002;-86
2021/01/16 08:35:28;650615.00;2.17;1121.70;0.00;0.00;0.62;;;;;5.30;1.00;;;;;;2284411;61;1049;-85
2021/01/16 08:38:15;784871.00;2.62;1354.75;0.00;0.00;0.62;;;;;5.20;1.00;;;;;;2279995;61;1075;-85
2021/01/16 08:40:50;137734048.00;459.11;105889512.00;0.00;0.00;0.62;;;;;5.20;1.00;;;;;;2280045;61;1148;-85
2021/01/16 08:43:29;656705.00;2.19;1132.24;0.00;0.00;0.62;;;;;5.20;1.00;;;;;;2280052;61;1494;-86
2021/01/16 08:46:06;634694.00;2.12;1094.16;0.00;0.00;0.62;;;;;5.30;1.00;;;;;;2276562;61;1009;-87
2021/01/16 08:48:33;694364.00;2.31;1197.47;0.00;0.00;0.62;;;;;5.60;1.00;;;;;;2280074;61;1049;-86
2021/01/16 08:50:59;701437.00;2.34;1209.73;0.00;0.00;0.62;;;;;5.50;1.00;;;;;;2279920;61;1141;-84
2021/01/16 08:53:27;797227.00;2.66;1376.29;41696.00;0.14;72.82;;;;;5.00;1.00;;;;;;2279957;61;1934;-85
2021/01/16 08:55:54;775335.00;2.58;1338.14;0.00;0.00;0.62;;;;;4.80;1.00;;;;;;2282332;61;1084;-86
2021/01/16 08:58:28;717251.00;2.39;1237.17;0.00;0.00;0.62;;;;;4.60;1.00;;;;;;2284645;61;1104;-86
2021/01/16 09:00:57;667634.00;2.23;1151.16;0.00;0.00;0.62;;;;;4.60;1.00;;;;;;2284597;61;1090;-85
2021/01/16 09:03:25;825967.00;2.75;1426.45;0.00;0.00;0.62;;;;;4.80;1.00;;;;;;2284565;61;1362;-85
2021/01/16 09:06:01;759219.00;2.53;1310.09;16776.00;0.06;29.69;;;;;4.60;1.00;;;;;;2284550;61;1106;-85
2021/01/16 09:08:29;616571.00;2.06;1062.84;0.00;0.00;0.62;;;;;4.90;1.00;;;;;;2284597;61;1051;-85
2021/01/16 09:11:12;801526.00;2.67;1383.79;0.00;0.00;0.62;;;;;4.70;1.00;;;;;;2284541;61;1069;-85
2021/01/16 09:13:41;134925872.00;449.75;99537688.00;0.00;0.00;0.62;;;;;3.90;1.00;;;;;;2284527;61;1992;-85
2021/01/16 09:16:28;747802.00;2.49;1290.24;0.00;0.00;0.62;;;;;3.90;1.00;;;;;;2284563;61;1043;-85
2021/01/16 09:18:56;654611.00;2.18;1128.61;0.00;0.00;0.62;;;;;3.60;1.00;;;;;;2284473;61;1096;-85
2021/01/16 09:21:24;639466.00;2.13;1102.42;0.00;0.00;0.62;;;;;3.90;1.00;;;;;;2284474;61;1108;-85
2021/01/16 09:23:51;694897.00;2.32;1198.39;0.00;0.00;0.62;;;;;4.20;1.00;;;;;;2284239;61;1278;-85
2021/01/16 09:26:20;707329.00;2.36;1219.95;0.00;0.00;0.62;;;;;4.30;1.00;;;;;;2284402;61;1132;-85
2021/01/16 09:28:49;744248.00;2.48;1284.06;0.00;0.00;0.62;;;;;4.20;1.00;;;;;;2284418;61;2084;-85
2021/01/16 09:31:27;778938.00;2.60;1344.42;0.00;0.00;0.62;;;;;4.20;1.00;;;;;;2284441;61;1139;-85
2021/01/16 09:33:57;777511.00;2.59;1341.93;0.00;0.00;0.62;;;;;4.10;1.00;;;;;;2284438;61;1998;-85
2021/01/16 09:36:52;860277.00;2.87;1486.46;13245.00;0.04;23.57;;;;;4.10;1.00;;;;;;2284402;61;1139;-85
2021/01/16 09:39:24;818666.00;2.73;1413.70;3567.00;0.01;6.80;;;;;4.10;1.00;;;;;;2284420;61;1756;-86
2021/01/16 09:41:54;744135.00;2.48;1283.86;0.00;0.00;0.62;;;;;4.40;1.00;;;;;;2284417;61;1385;-85
2021/01/16 09:44:52;120386280.00;401.29;70678800.00;0.00;0.00;0.62;;;;;4.50;1.00;;;;;;2284464;61;1088;-85
2021/01/16 09:47:44;957653.00;3.19;1657.61;81513.00;0.27;141.65;;;;;4.60;1.00;;;;;;2284059;61;1361;-85
2021/01/16 09:50:13;1100438.00;3.67;1911.21;92902.00;0.31;161.32;;;;;4.90;1.00;;;;;;2284391;61;1241;-85
2021/01/16 09:52:47;673474.00;2.24;1161.27;0.00;0.00;0.62;;;;;4.90;1.00;;;;;;2284220;61;2002;-85
2021/01/16 09:55:23;125802360.00;419.34;80663736.00;92168.00;0.31;160.05;;;;;5.40;1.00;;;;;;2284450;61;1116;-85
2021/01/16 09:57:50;1087328.00;3.62;1887.78;100776.00;0.34;174.91;;;;;5.50;1.00;;;;;;2284357;61;1085;-85